createdAt,value
2019-04-20T00:01:58.208Z,100099.78
2019-04-20T00:04:33.454Z,100102.81
2019-04-20T00:06:59.216Z,100094.64
2019-04-20T00:09:31.728Z,100092.14
2019-04-20T00:12:07.114Z,100094.95
2019-04-20T00:14:35.622Z,100094.73
2019-04-20T00:17:05.141Z,100096.06
2019-04-20T00:19:40.513Z,100091.96
2019-04-20T00:22:17.262Z,100089.73
2019-04-20T00:25:12.647Z,100093.02
2019-04-20T00:28:16.111Z,100089.30
2019-04-20T00:30:50.349Z,100097.08
2019-04-20T00:33:09.533Z,100091.30
2019-04-20T00:35:33.852Z,100095.04
2019-04-20T00:38:05.538Z,100090.24
2019-04-20T00:40:36.086Z,100092.28
2019-04-20T00:43:06.661Z,100085.63
2019-04-20T00:45:41.394Z,100094.34
2019-04-20T00:48:19.860Z,100092.19
2019-04-20T00:50:48.878Z,100086.95
2019-04-20T00:53:21.677Z,100088.50
2019-04-20T00:55:42.264Z,100088.91
2019-04-20T00:58:20.071Z,100085.80
2019-04-20T01:01:07.102Z,100085.61
2019-04-20T01:03:27.817Z,100087.34
2019-04-20T01:06:27.231Z,100083.21
2019-04-20T01:09:05.460Z,100094.28
2019-04-20T01:11:40.040Z,100093.88
2019-04-20T01:14:09.393Z,100087.95
2019-04-20T01:16:45.191Z,100083.23
2019-04-20T01:19:07.090Z,100083.17
2019-04-20T01:21:36.866Z,100086.17
2019-04-20T01:24:08.892Z,100081.57
2019-04-20T01:26:45.581Z,100084.77
2019-04-20T01:29:21.562Z,100089.97
2019-04-20T01:31:55.729Z,100086.45
2019-04-20T01:34:26.584Z,100093.69
2019-04-20T01:36:55.649Z,100090.48
2019-04-20T01:39:23.953Z,100093.97
2019-04-20T01:41:45.377Z,100088.20
2019-04-20T01:44:18.844Z,100095.22
2019-04-20T01:46:51.373Z,100091.62
2019-04-20T01:49:22.095Z,100090.85
2019-04-20T01:51:57.727Z,100095.39
2019-04-20T01:54:31.570Z,100090.28
2019-04-20T01:57:09.406Z,100095.97
2019-04-20T01:59:44.523Z,100099.45
2019-04-20T02:02:27.792Z,100095.39
2019-04-20T02:05:10.385Z,100105.96
2019-04-20T02:07:39.990Z,100106.13
2019-04-20T02:10:06.366Z,100103.98
2019-04-20T02:12:37.248Z,100101.22
2019-04-20T02:15:12.692Z,100100.39
2019-04-20T02:17:43.535Z,100112.36
2019-04-20T02:20:31.637Z,100111.98
2019-04-20T02:22:57.028Z,100112.07
2019-04-20T02:25:12.176Z,100108.86
2019-04-20T02:27:47.141Z,100113.47
2019-04-20T02:30:48.218Z,100112.36
2019-04-20T02:33:27.301Z,100112.64
2019-04-20T02:36:15.067Z,100107.08
2019-04-20T02:39:21.073Z,100110.54
2019-04-20T02:44:16.027Z,100112.89
2019-04-20T02:46:40.934Z,100111.20
2019-04-20T02:49:19.706Z,100107.41
2019-04-20T02:51:56.696Z,100109.87
2019-04-20T02:56:51.671Z,100105.64
2019-04-20T02:59:45.093Z,100107.16
2019-04-20T03:01:31.137Z,100111.70
2019-04-20T03:03:50.380Z,100109.06
2019-04-20T03:06:26.355Z,100109.60
2019-04-20T03:09:11.336Z,100105.39
2019-04-20T03:11:49.897Z,100107.59
2019-04-20T03:14:10.907Z,100110.74
2019-04-20T03:16:35.686Z,100111.85
2019-04-20T03:19:08.038Z,100110.23
2019-04-20T03:21:44.750Z,100102.98
2019-04-20T03:24:20.419Z,100110.16
2019-04-20T03:26:55.764Z,100105.84
2019-04-20T03:29:42.564Z,100104.52
2019-04-20T03:37:26.893Z,100111.56
2019-04-20T03:39:47.589Z,100106.77
2019-04-20T03:42:05.146Z,100110.73
2019-04-20T03:44:35.792Z,100108.84
2019-04-20T03:47:08.929Z,100115.36
2019-04-20T03:50:02.696Z,100121.73
2019-04-20T03:52:58.046Z,100115.36
2019-04-20T03:55:40.828Z,100121.55
2019-04-20T03:58:18.590Z,100117.80
2019-04-20T04:01:14.796Z,100112.07
2019-04-20T04:03:53.246Z,100114.19
2019-04-20T04:06:15.904Z,100118.90
2019-04-20T04:08:41.333Z,100110.45
2019-04-20T04:11:21.652Z,100113.69
2019-04-20T04:13:37.755Z,100111.20
2019-04-20T04:16:11.366Z,100111.91
2019-04-20T04:18:47.293Z,100108.92
2019-04-20T04:21:21.267Z,100112.62
2019-04-20T04:23:58.858Z,100110.89
2019-04-20T04:26:30.077Z,100115.08
2019-04-20T04:29:08.621Z,100111.70
2019-04-20T04:31:36.322Z,100114.53
2019-04-20T04:34:14.163Z,100117.66
2019-04-20T04:36:36.071Z,100124.70
2019-04-20T04:39:16.333Z,100116.75
2019-04-20T04:41:39.810Z,100122.44
2019-04-20T04:44:08.690Z,100124.70
2019-04-20T04:46:24.927Z,100129.33
2019-04-20T04:49:05.441Z,100135.25
2019-04-20T04:51:38.475Z,100131.25
2019-04-20T04:54:03.924Z,100131.44
2019-04-20T04:56:30.822Z,100140.61
2019-04-20T04:59:02.604Z,100144.92
2019-04-20T05:01:33.744Z,100141.68
2019-04-20T05:04:25.105Z,100144.64
2019-04-20T05:06:48.078Z,100143.55
2019-04-20T05:09:10.650Z,100147.30
2019-04-20T05:11:36.980Z,100146.03
2019-04-20T05:14:11.280Z,100151.07
2019-04-20T05:16:54.902Z,100153.43
2019-04-20T05:19:30.450Z,100153.71
2019-04-20T05:22:21.843Z,100158.22
2019-04-20T05:24:56.839Z,100149.97
2019-04-20T05:27:59.087Z,100149.11
2019-04-20T05:30:07.794Z,100156.53
2019-04-20T05:32:48.273Z,100158.79
2019-04-20T05:35:40.807Z,100159.59
2019-04-20T05:38:06.607Z,100155.58
2019-04-20T05:40:32.568Z,100159.22
2019-04-20T05:43:27.540Z,100150.69
2019-04-20T05:45:52.620Z,100155.17
2019-04-20T05:48:26.144Z,100145.82
2019-04-20T05:50:56.076Z,100147.42
2019-04-20T05:53:37.033Z,100146.97
2019-04-20T05:56:03.818Z,100151.66
2019-04-20T05:58:33.009Z,100148.84
2019-04-20T06:01:06.772Z,100145.65
2019-04-20T06:03:37.213Z,100153.50
2019-04-20T06:06:10.544Z,100156.52
2019-04-20T06:08:51.201Z,100153.38
2019-04-20T06:11:17.943Z,100154.48
2019-04-20T06:14:05.013Z,100159.00
2019-04-20T06:17:15.882Z,100153.66
2019-04-20T06:19:39.739Z,100150.83
2019-04-20T06:22:28.580Z,100146.30
2019-04-20T06:25:16.634Z,100150.86
2019-04-20T06:27:40.523Z,100143.59
2019-04-20T06:30:06.944Z,100147.23
2019-04-20T06:33:24.405Z,100145.44
2019-04-20T06:36:07.399Z,100148.10
2019-04-20T06:38:38.611Z,100141.42
2019-04-20T06:41:02.375Z,100142.77
2019-04-20T06:43:20.863Z,100146.39
2019-04-20T06:46:01.956Z,100144.81
2019-04-20T06:48:29.383Z,100146.38
2019-04-20T06:50:53.842Z,100142.55
2019-04-20T06:53:44.989Z,100142.51
2019-04-20T06:56:17.442Z,100143.23
2019-04-20T06:58:53.759Z,100147.79
2019-04-20T07:01:21.831Z,100144.25
2019-04-20T07:04:02.265Z,100147.41
2019-04-20T07:06:38.346Z,100149.02
2019-04-20T07:09:01.776Z,100143.46
2019-04-20T07:11:25.304Z,100144.22
2019-04-20T07:13:43.441Z,100146.95
2019-04-20T07:16:53.123Z,100144.87
2019-04-20T07:19:32.610Z,100143.59
2019-04-20T07:22:18.525Z,100145.34
2019-04-20T07:24:40.546Z,100146.59
2019-04-20T07:27:10.366Z,100146.97
2019-04-20T07:29:43.260Z,100156.80
2019-04-20T07:32:06.379Z,100154.14
2019-04-20T07:34:40.198Z,100149.35
2019-04-20T07:39:48.407Z,100152.95
2019-04-20T07:42:27.101Z,100150.33
2019-04-20T07:44:57.971Z,100154.31
2019-04-20T07:47:32.818Z,100150.04
2019-04-20T07:49:52.718Z,100150.13
2019-04-20T07:52:01.916Z,100148.73
2019-04-20T07:55:13.632Z,100149.05
2019-04-20T07:57:24.729Z,100149.55
2019-04-20T07:59:59.131Z,100137.43
2019-04-20T08:03:03.793Z,100138.86
2019-04-20T08:05:40.540Z,100139.64
2019-04-20T08:08:18.105Z,100138.08
2019-04-20T08:10:51.662Z,100133.28
2019-04-20T08:13:32.957Z,100140.99
2019-04-20T08:15:57.099Z,100131.05
2019-04-20T08:20:57.630Z,100123.22
2019-04-20T08:23:32.008Z,100125.94
2019-04-20T08:25:50.084Z,100129.59
2019-04-20T08:28:34.914Z,100127.22
2019-04-20T08:31:29.170Z,100120.55
2019-04-20T08:34:28.246Z,100120.78
2019-04-20T08:36:39.120Z,100123.88
2019-04-20T08:39:23.764Z,100118.47
2019-04-20T08:41:45.122Z,100115.37
2019-04-20T08:44:38.070Z,100120.20
2019-04-20T08:46:55.821Z,100114.77
2019-04-20T08:49:20.423Z,100108.47
2019-04-20T08:51:59.981Z,100113.64
2019-04-20T08:54:16.747Z,100112.09
2019-04-20T08:56:36.073Z,100108.10
2019-04-20T08:59:02.282Z,100107.80
2019-04-20T09:01:35.822Z,100108.72
2019-04-20T09:04:12.471Z,100119.39
2019-04-20T09:06:49.070Z,100118.14
2019-04-20T09:09:37.912Z,100105.36
2019-04-20T09:11:54.467Z,100107.05
2019-04-20T09:14:21.379Z,100096.80
2019-04-20T09:17:01.902Z,100103.81
2019-04-20T09:19:37.962Z,100098.06
2019-04-20T09:22:28.054Z,100097.00
2019-04-20T09:25:16.137Z,100088.33
2019-04-20T09:27:26.861Z,100087.08
2019-04-20T09:30:03.374Z,100082.30
2019-04-20T09:32:39.606Z,100088.13
2019-04-20T09:35:13.613Z,100075.02
2019-04-20T09:37:49.713Z,100083.48
2019-04-20T09:40:33.542Z,100075.19
2019-04-20T09:42:58.606Z,100073.31
2019-04-20T09:45:44.365Z,100082.59
2019-04-20T09:48:15.749Z,100070.30
2019-04-20T09:51:07.959Z,100070.63
2019-04-20T09:53:30.136Z,100071.99
2019-04-20T09:56:04.668Z,100072.92
2019-04-20T09:58:31.099Z,100068.02
2019-04-20T10:01:06.764Z,100071.55
2019-04-20T10:03:22.820Z,100063.08
2019-04-20T10:05:51.983Z,100060.50
2019-04-20T10:08:21.884Z,100059.35
2019-04-20T10:10:52.933Z,100048.82
2019-04-20T10:13:25.084Z,100055.03
2019-04-20T10:15:55.435Z,100062.64
2019-04-20T10:18:25.939Z,100053.34
2019-04-20T10:20:57.808Z,100051.69
2019-04-20T10:23:27.117Z,100052.95
2019-04-20T10:25:56.597Z,100047.50
2019-04-20T10:28:27.692Z,100050.33
2019-04-20T10:30:58.980Z,100048.27
2019-04-20T10:33:28.419Z,100051.61
2019-04-20T10:35:57.767Z,100053.66
2019-04-20T10:38:33.711Z,100044.23
2019-04-20T10:41:08.299Z,100033.13
2019-04-20T10:43:33.236Z,100035.89
2019-04-20T10:46:02.734Z,100031.22
2019-04-20T10:48:40.245Z,100030.85
2019-04-20T10:51:03.278Z,100024.44
2019-04-20T10:53:32.414Z,100029.05
2019-04-20T10:56:01.594Z,100025.02
2019-04-20T10:58:31.745Z,100025.51
2019-04-20T11:01:03.940Z,100023.27
2019-04-20T11:03:34.469Z,100017.02
2019-04-20T11:06:04.802Z,100014.89
2019-04-20T11:11:23.814Z,100018.27
2019-04-20T11:13:48.095Z,100022.35
2019-04-20T11:16:18.078Z,100009.02
2019-04-20T11:18:47.363Z,100005.99
2019-04-20T11:21:20.061Z,100001.10
2019-04-20T11:23:49.981Z,99995.26
2019-04-20T11:26:20.248Z,99993.22
2019-04-20T11:28:50.389Z,99996.44
2019-04-20T11:31:40.891Z,99994.03
2019-04-20T11:36:57.160Z,99986.55
2019-04-20T11:39:27.125Z,99994.67
2019-04-20T11:41:56.525Z,99991.10
2019-04-20T11:44:29.413Z,99986.34
2019-04-20T11:46:58.709Z,99998.77
2019-04-20T11:49:28.023Z,99986.16
2019-04-20T11:52:01.558Z,99993.23
2019-04-20T11:54:34.475Z,99980.12
2019-04-20T11:57:04.959Z,99985.25
2019-04-20T11:59:34.978Z,99987.27
2019-04-20T12:02:29.578Z,99975.29
2019-04-20T12:05:12.792Z,99974.99
2019-04-20T12:07:40.573Z,99984.41
2019-04-20T12:10:15.841Z,99970.45
2019-04-20T12:12:46.728Z,99958.52
2019-04-20T12:15:14.776Z,99970.00
2019-04-20T12:17:44.000Z,99965.41
2019-04-20T12:20:14.546Z,99971.80
2019-04-20T12:22:46.281Z,99967.88
2019-04-20T12:25:18.197Z,99969.38
2019-04-20T12:27:52.580Z,99973.07
2019-04-20T12:30:19.591Z,99974.20
2019-04-20T12:32:55.305Z,99965.39
2019-04-20T12:35:22.352Z,99953.78
2019-04-20T12:37:51.529Z,99963.14
2019-04-20T12:40:23.883Z,99962.66
2019-04-20T12:42:53.283Z,99950.45
2019-04-20T12:45:23.808Z,99951.30
2019-04-20T12:47:53.480Z,99952.34
2019-04-20T12:50:23.801Z,99951.38
2019-04-20T12:52:56.645Z,99945.47
2019-04-20T12:55:26.384Z,99941.84
2019-04-20T12:57:56.690Z,99945.93
2019-04-20T13:00:46.215Z,99937.42
2019-04-20T13:03:15.510Z,99937.58
2019-04-20T13:05:45.830Z,99936.12
2019-04-20T13:08:23.356Z,99939.12
2019-04-20T13:10:50.735Z,99925.77
2019-04-20T13:13:38.753Z,99940.41
2019-04-20T13:16:22.605Z,99927.78
2019-04-20T13:18:55.375Z,99920.69
2019-04-20T13:21:27.111Z,99919.17
2019-04-20T13:23:56.498Z,99909.98
2019-04-20T13:26:46.862Z,99907.80
2019-04-20T13:29:20.194Z,99905.30
2019-04-20T13:31:52.043Z,99908.69
2019-04-20T13:34:20.211Z,99909.87
2019-04-20T13:36:50.641Z,99905.80
2019-04-20T13:39:19.962Z,99898.66
2019-04-20T13:42:00.669Z,99899.20
2019-04-20T13:44:20.098Z,99891.09
2019-04-20T13:46:49.262Z,99888.66
2019-04-20T13:49:18.799Z,99886.31
2019-04-20T13:51:48.726Z,99880.89
2019-04-20T13:54:24.351Z,99872.59
2019-04-20T13:56:52.611Z,99873.36
2019-04-20T13:59:37.921Z,99872.76
2019-04-20T14:02:28.889Z,99867.80
2019-04-20T14:05:00.079Z,99870.89
2019-04-20T14:07:29.531Z,99873.52
2019-04-20T14:09:59.769Z,99863.81
2019-04-20T14:12:36.701Z,99864.92
2019-04-20T14:15:02.908Z,99859.29
2019-04-20T14:17:33.003Z,99857.42
2019-04-20T14:20:09.793Z,99852.19
2019-04-20T14:22:35.269Z,99848.57
2019-04-20T14:25:05.107Z,99839.22
2019-04-20T14:27:40.079Z,99835.38
2019-04-20T14:30:09.349Z,99835.58
2019-04-20T14:32:40.832Z,99820.76
2019-04-20T14:35:11.344Z,99827.46
2019-04-20T14:37:41.665Z,99829.55
2019-04-20T14:40:12.497Z,99823.78
2019-04-20T14:42:48.542Z,99822.34
2019-04-20T14:45:14.455Z,99818.59
2019-04-20T14:47:43.869Z,99811.26
2019-04-20T14:50:14.237Z,99800.28
2019-04-20T14:52:45.140Z,99796.00
2019-04-20T14:55:16.949Z,99805.38
2019-04-20T14:57:45.622Z,99816.02
2019-04-20T15:00:29.916Z,99801.20
2019-04-20T15:03:04.068Z,99801.03
2019-04-20T15:05:33.142Z,99803.02
2019-04-20T15:08:02.759Z,99797.77
2019-04-20T15:10:33.398Z,99785.55
2019-04-20T15:13:04.672Z,99775.94
2019-04-20T15:15:34.580Z,99787.64
2019-04-20T15:18:11.372Z,99788.16
2019-04-20T15:20:45.710Z,99788.38
2019-04-20T15:23:23.675Z,99770.61
2019-04-20T15:25:52.998Z,99778.75
2019-04-20T15:28:22.049Z,99775.33
2019-04-20T15:30:52.094Z,99779.60
2019-04-20T15:33:21.215Z,99777.61
2019-04-20T15:35:50.396Z,99776.88
2019-04-20T15:38:20.837Z,99772.08
2019-04-20T15:40:53.048Z,99773.86
2019-04-20T15:43:24.982Z,99771.76
2019-04-20T15:45:53.289Z,99756.53
2019-04-20T15:48:24.204Z,99767.56
2019-04-20T15:50:54.027Z,99772.28
2019-04-20T15:53:23.926Z,99766.23
2019-04-20T15:55:53.303Z,99753.19
2019-04-20T15:58:22.936Z,99771.55
2019-04-20T16:00:52.767Z,99763.71
2019-04-20T16:03:47.686Z,99763.71
2019-04-20T16:06:23.123Z,99767.80
2019-04-20T16:08:54.554Z,99760.37
2019-04-20T16:11:26.642Z,99638.06
2019-04-20T16:13:57.729Z,99758.90
2019-04-20T16:16:27.834Z,99754.30
2019-04-20T16:18:59.108Z,99760.34
2019-04-20T16:21:31.648Z,99752.00
2019-04-20T16:24:04.457Z,99747.82
2019-04-20T16:26:41.933Z,99745.73
2019-04-20T16:29:13.818Z,99745.75
2019-04-20T16:31:46.388Z,99752.44
2019-04-20T16:34:14.104Z,99742.17
2019-04-20T16:36:44.513Z,99741.20
2019-04-20T16:39:14.428Z,99734.95
2019-04-20T16:41:48.539Z,99732.43
2019-04-20T16:44:17.791Z,99739.33
2019-04-20T16:46:48.253Z,99731.20
2019-04-20T16:49:17.302Z,99739.50
2019-04-20T16:51:47.454Z,99733.63
2019-04-20T16:54:17.614Z,99733.46
2019-04-20T16:56:46.861Z,99731.14
2019-04-20T16:59:17.838Z,99729.38
2019-04-20T17:01:48.494Z,99732.90
2019-04-20T17:04:22.387Z,99729.73
2019-04-20T17:07:08.518Z,99715.76
2019-04-20T17:09:37.979Z,99727.45
2019-04-20T17:12:07.798Z,99727.26
2019-04-20T17:14:39.941Z,99727.92
2019-04-20T17:17:11.585Z,99731.82
2019-04-20T17:19:41.772Z,99726.78
2019-04-20T17:22:14.887Z,99729.73
2019-04-20T17:24:45.175Z,99722.24
2019-04-20T17:27:35.115Z,99727.95
2019-04-20T17:30:17.898Z,99725.36
2019-04-20T17:32:45.701Z,99722.78
2019-04-20T17:35:25.785Z,99719.13
2019-04-20T17:37:48.664Z,99724.54
2019-04-20T17:40:35.746Z,99725.41
2019-04-20T17:42:59.625Z,99730.23
2019-04-20T17:45:32.345Z,99727.59
2019-04-20T17:48:08.843Z,99730.04
2019-04-20T17:50:41.450Z,99720.63
2019-04-20T17:53:07.226Z,99726.80
2019-04-20T17:55:40.431Z,99731.63
2019-04-20T17:58:05.749Z,99733.58
2019-04-20T18:00:52.879Z,99731.14
2019-04-20T18:03:58.511Z,99738.84
2019-04-20T18:06:15.017Z,99727.26
2019-04-20T18:08:45.413Z,99736.09
2019-04-20T18:11:03.963Z,99731.45
2019-04-20T18:13:29.102Z,99730.23
2019-04-20T18:16:28.394Z,99732.75
2019-04-20T18:19:15.647Z,99729.91
2019-04-20T18:21:41.675Z,99731.59
2019-04-20T18:24:42.413Z,99728.75
2019-04-20T18:27:07.159Z,99727.30
2019-04-20T18:29:42.891Z,99729.64
2019-04-20T18:32:11.795Z,99731.63
2019-04-20T18:35:00.817Z,99733.58
2019-04-20T18:37:28.833Z,99733.80
2019-04-20T18:40:06.201Z,99729.58
2019-04-20T18:42:38.444Z,99735.48
2019-04-20T18:45:23.131Z,99711.53
2019-04-20T18:47:49.570Z,99742.73
2019-04-20T18:50:10.738Z,99741.13
2019-04-20T18:52:35.727Z,99740.03
2019-04-20T18:55:06.351Z,99740.88
2019-04-20T18:57:36.722Z,99741.66
2019-04-20T19:00:07.931Z,99742.25
2019-04-20T19:02:41.144Z,99746.00
2019-04-20T19:05:09.166Z,99746.00
2019-04-20T19:07:46.569Z,99748.20
2019-04-20T19:10:21.034Z,99746.89
2019-04-20T19:12:52.294Z,99747.11
2019-04-20T19:15:56.535Z,99749.56
2019-04-20T19:18:50.760Z,99749.17
2019-04-20T19:21:06.874Z,99750.11
2019-04-20T19:23:40.585Z,99752.86
2019-04-20T19:26:12.285Z,99759.38
2019-04-20T19:28:44.475Z,99763.31
2019-04-20T19:31:27.796Z,99757.83
2019-04-20T19:34:02.106Z,99765.72
2019-04-20T19:36:25.615Z,99766.45
2019-04-20T19:38:56.298Z,99765.89
2019-04-20T19:41:30.119Z,99756.95
2019-04-20T19:44:02.528Z,99760.98
2019-04-20T19:46:46.310Z,99762.80
2019-04-20T19:48:56.685Z,99761.41
2019-04-20T19:51:43.520Z,99767.50
2019-04-20T19:54:15.264Z,99774.52
2019-04-20T19:56:38.764Z,99774.70
2019-04-20T19:59:05.112Z,99770.69
2019-04-20T20:01:22.006Z,99786.25
2019-04-20T20:03:57.506Z,99782.27
2019-04-20T20:06:29.140Z,99776.98
2019-04-20T20:08:58.055Z,99781.51
2019-04-20T20:11:30.425Z,99780.16
2019-04-20T20:13:57.156Z,99784.16
2019-04-20T20:16:33.650Z,99784.69
2019-04-20T20:19:07.657Z,99788.39
2019-04-20T20:21:45.743Z,99789.86
2019-04-20T20:24:00.074Z,99790.32
2019-04-20T20:26:35.220Z,99788.47
2019-04-20T20:29:09.657Z,99783.95
2019-04-20T20:31:48.590Z,99783.32
2019-04-20T20:34:12.908Z,99779.06
2019-04-20T20:36:43.524Z,99785.61
2019-04-20T20:39:15.731Z,99784.41
2019-04-20T20:41:49.148Z,99788.76
2019-04-20T20:44:22.552Z,99786.95
2019-04-20T20:46:53.455Z,99785.52
2019-04-20T20:49:28.657Z,99784.59
2019-04-20T20:52:02.753Z,99783.17
2019-04-20T20:54:26.939Z,99781.25
2019-04-20T20:56:51.422Z,99784.35
2019-04-20T20:59:26.852Z,99785.77
2019-04-20T21:01:51.753Z,99788.16
2019-04-20T21:04:15.676Z,99782.79
2019-04-20T21:06:44.822Z,99780.63
2019-04-20T21:09:14.445Z,99780.87
2019-04-20T21:11:44.315Z,99777.05
2019-04-20T21:14:21.054Z,99776.36
2019-04-20T21:16:53.132Z,99773.19
2019-04-20T21:19:33.903Z,99777.34
2019-04-20T21:21:57.088Z,99774.92
2019-04-20T21:24:31.948Z,99774.28
2019-04-20T21:27:09.960Z,99773.06
2019-04-20T21:29:40.856Z,99771.21
2019-04-20T21:32:11.883Z,99766.59
2019-04-20T21:34:36.483Z,99771.55
2019-04-20T21:37:11.610Z,99775.13
2019-04-20T21:39:44.130Z,99775.22
2019-04-20T21:42:12.544Z,99768.45
2019-04-20T21:44:42.905Z,99768.38
2019-04-20T21:47:15.699Z,99774.98
2019-04-20T21:49:54.094Z,99770.05
2019-04-20T21:52:23.466Z,99772.33
2019-04-20T21:54:46.087Z,99761.30
2019-04-20T21:57:18.011Z,99766.66
2019-04-20T21:59:50.910Z,99764.77
2019-04-20T22:02:21.680Z,99767.19
2019-04-20T22:04:49.299Z,99771.12
2019-04-20T22:07:20.884Z,99760.38
2019-04-20T22:09:54.579Z,99760.86
2019-04-20T22:12:23.598Z,99756.38
2019-04-20T22:14:58.764Z,99759.03
2019-04-20T22:17:28.902Z,99759.69
2019-04-20T22:20:07.063Z,99758.59
2019-04-20T22:22:42.400Z,99762.17
2019-04-20T22:25:12.163Z,99753.27
2019-04-20T22:27:34.576Z,99759.28
2019-04-20T22:29:59.968Z,99755.45
2019-04-20T22:32:30.060Z,99756.39
2019-04-20T22:35:03.210Z,99753.02
2019-04-20T22:37:38.367Z,99742.52
2019-04-20T22:40:11.774Z,99743.81
2019-04-20T22:42:46.479Z,99748.75
2019-04-20T22:45:15.044Z,99751.30
2019-04-20T22:47:42.690Z,99743.20
2019-04-20T22:50:25.524Z,99748.75
2019-04-20T22:52:52.481Z,99746.11
2019-04-20T22:55:39.717Z,99742.73
2019-04-20T22:57:53.422Z,99743.45
2019-04-20T23:00:29.225Z,99739.59
2019-04-20T23:02:48.876Z,99605.72
2019-04-20T23:05:18.597Z,99746.41
2019-04-20T23:07:48.698Z,99748.20
2019-04-20T23:10:25.293Z,99749.13
2019-04-20T23:12:52.933Z,99741.75
2019-04-20T23:15:20.516Z,99736.59
2019-04-20T23:17:52.078Z,99740.61
2019-04-20T23:20:26.705Z,99735.27
2019-04-20T23:22:52.946Z,99730.19
2019-04-20T23:25:22.962Z,99728.92
2019-04-20T23:28:02.355Z,99726.48
2019-04-20T23:30:29.161Z,99724.69
2019-04-20T23:32:56.061Z,99720.61
2019-04-20T23:35:26.722Z,99721.27
2019-04-20T23:38:02.852Z,99724.16
2019-04-20T23:40:27.809Z,99722.40
2019-04-20T23:43:10.208Z,99719.91
2019-04-20T23:45:54.822Z,99718.41
2019-04-20T23:48:46.510Z,99718.36
2019-04-20T23:51:39.062Z,99715.61
2019-04-20T23:53:56.449Z,99723.20
2019-04-20T23:56:20.170Z,99721.98
2019-04-20T23:58:52.787Z,99718.33
